createdAt,value
2023-02-14T00:01:11.361Z,90.20
2023-02-14T00:03:38.764Z,90.30
2023-02-14T00:06:12.277Z,90.30
2023-02-14T00:08:41.080Z,90.20
2023-02-14T00:11:09.018Z,90.20
2023-02-14T00:13:36.402Z,90.10
2023-02-14T00:16:03.570Z,90.10
2023-02-14T00:18:49.533Z,90.20
2023-02-14T00:21:16.435Z,90.20
2023-02-14T00:23:43.508Z,90.40
2023-02-14T00:26:15.232Z,90.10
2023-02-14T00:28:43.515Z,90.20
2023-02-14T00:31:10.876Z,90.20
2023-02-14T00:33:38.014Z,90.20
2023-02-14T00:36:07.070Z,90.20
2023-02-14T00:38:34.826Z,90.20
2023-02-14T00:41:02.201Z,90.20
2023-02-14T00:43:29.209Z,90.20
2023-02-14T00:45:57.482Z,90.10
2023-02-14T00:48:24.575Z,90.10
2023-02-14T00:50:51.532Z,90.10
2023-02-14T00:53:18.445Z,90.10
2023-02-14T00:55:47.053Z,90.10
2023-02-14T00:58:15.099Z,90.10
2023-02-14T01:00:42.072Z,90.00
2023-02-14T01:03:09.054Z,90.00
2023-02-14T01:05:36.285Z,90.00
2023-02-14T01:08:04.722Z,90.00
2023-02-14T01:10:31.780Z,90.00
2023-02-14T01:12:58.984Z,90.00
2023-02-14T01:15:27.949Z,89.70
2023-02-14T01:17:54.891Z,89.70
2023-02-14T01:20:21.853Z,89.60
2023-02-14T01:22:48.899Z,89.60
2023-02-14T01:25:16.016Z,89.70
2023-02-14T01:27:42.946Z,89.90
2023-02-14T01:30:10.974Z,90.00
2023-02-14T01:32:37.908Z,90.00
2023-02-14T01:35:05.328Z,90.00
2023-02-14T01:37:32.292Z,90.00
2023-02-14T01:39:59.467Z,90.30
2023-02-14T01:42:26.595Z,89.90
2023-02-14T01:45:08.838Z,89.90
2023-02-14T01:47:41.588Z,89.90
2023-02-14T01:50:39.292Z,89.90
2023-02-14T01:53:17.140Z,89.90
2023-02-14T01:55:51.561Z,89.80
2023-02-14T01:58:24.286Z,90.00
2023-02-14T02:00:57.250Z,90.00
2023-02-14T02:03:46.537Z,90.00
2023-02-14T02:06:40.980Z,90.40
2023-02-14T02:09:24.530Z,90.10
2023-02-14T02:11:51.484Z,90.00
2023-02-14T02:14:22.193Z,90.30
2023-02-14T02:17:10.785Z,90.00
2023-02-14T02:20:29.777Z,89.90
2023-02-14T02:23:46.211Z,90.00
2023-02-14T02:26:46.301Z,89.90
2023-02-14T02:30:04.105Z,89.80
2023-02-14T02:33:17.366Z,89.80
2023-02-14T02:35:58.708Z,89.90
2023-02-14T02:39:03.549Z,89.90
2023-02-14T02:42:08.221Z,89.90
2023-02-14T02:45:10.634Z,89.70
2023-02-14T02:47:47.007Z,89.90
2023-02-14T02:51:04.675Z,89.90
2023-02-14T02:53:58.950Z,89.80
2023-02-14T02:56:46.123Z,89.70
2023-02-14T02:59:30.366Z,89.70
2023-02-14T03:02:23.163Z,89.70
2023-02-14T03:05:00.867Z,89.70
2023-02-14T03:07:39.123Z,89.70
2023-02-14T03:10:30.882Z,89.70
2023-02-14T03:13:13.864Z,89.50
2023-02-14T03:16:14.757Z,89.50
2023-02-14T03:19:18.975Z,89.20
2023-02-14T03:22:49.286Z,89.20
2023-02-14T03:25:59.737Z,88.90
2023-02-14T03:28:43.275Z,89.10
2023-02-14T03:31:24.528Z,89.20
2023-02-14T03:34:02.967Z,89.40
2023-02-14T03:36:49.367Z,89.60
2023-02-14T03:39:28.245Z,89.60
2023-02-14T03:42:13.951Z,89.50
2023-02-14T03:44:45.107Z,89.60
2023-02-14T03:47:23.407Z,89.60
2023-02-14T03:50:10.234Z,89.70
2023-02-14T03:52:38.957Z,89.60
2023-02-14T03:55:08.575Z,89.60
2023-02-14T03:57:54.455Z,89.50
2023-02-14T04:00:21.439Z,89.50
2023-02-14T04:03:01.170Z,89.50
2023-02-14T04:05:28.646Z,89.70
2023-02-14T04:07:58.493Z,89.80
2023-02-14T04:10:25.996Z,89.80
2023-02-14T04:12:53.625Z,89.70
2023-02-14T04:15:20.550Z,89.80
2023-02-14T04:18:05.741Z,90.20
2023-02-14T04:20:32.666Z,89.70
2023-02-14T04:23:00.891Z,89.60
2023-02-14T04:25:29.696Z,89.50
2023-02-14T04:27:56.624Z,89.60
2023-02-14T04:30:23.556Z,89.60
2023-02-14T04:32:50.525Z,89.50
2023-02-14T04:35:17.520Z,89.30
2023-02-14T04:37:45.619Z,88.90
2023-02-14T04:40:16.761Z,88.70
2023-02-14T04:42:45.474Z,88.80
2023-02-14T04:45:12.877Z,88.60
2023-02-14T04:47:39.965Z,88.70
2023-02-14T04:50:07.826Z,88.80
2023-02-14T04:52:34.735Z,88.80
2023-02-14T04:55:01.839Z,88.80
2023-02-14T04:57:28.770Z,88.70
2023-02-14T04:59:55.723Z,88.80
2023-02-14T05:02:22.685Z,88.80
2023-02-14T05:04:49.926Z,88.70
2023-02-14T05:07:17.047Z,88.80
2023-02-14T05:09:44.000Z,88.90
2023-02-14T05:12:11.048Z,88.90
2023-02-14T05:14:37.927Z,89.00
2023-02-14T05:17:04.832Z,89.10
2023-02-14T05:19:31.719Z,88.90
2023-02-14T05:21:58.614Z,88.50
2023-02-14T05:24:25.489Z,88.50
2023-02-14T05:26:52.476Z,88.40
2023-02-14T05:29:19.354Z,88.00
2023-02-14T05:31:46.374Z,87.90
2023-02-14T05:34:13.317Z,87.70
2023-02-14T05:36:40.294Z,87.90
2023-02-14T05:39:07.161Z,88.10
2023-02-14T05:41:34.149Z,88.10
2023-02-14T05:44:01.082Z,88.20
2023-02-14T05:46:27.973Z,88.30
2023-02-14T05:48:54.865Z,88.40
2023-02-14T05:51:21.819Z,88.40
2023-02-14T05:53:48.704Z,88.50
2023-02-14T05:56:15.597Z,88.50
2023-02-14T05:58:42.452Z,88.40
2023-02-14T06:01:09.367Z,88.50
2023-02-14T06:03:36.220Z,88.40
2023-02-14T06:06:03.347Z,88.40
2023-02-14T06:08:30.222Z,88.50
2023-02-14T06:10:57.183Z,88.60
2023-02-14T06:13:24.862Z,88.50
2023-02-14T06:15:51.761Z,88.50
2023-02-14T06:18:18.691Z,88.50
2023-02-14T06:20:45.590Z,88.50
2023-02-14T06:23:12.518Z,88.60
2023-02-14T06:25:39.389Z,88.50
2023-02-14T06:28:06.644Z,88.50
2023-02-14T06:30:33.694Z,88.60
2023-02-14T06:33:00.714Z,88.90
2023-02-14T06:35:27.556Z,89.30
2023-02-14T06:37:54.443Z,88.60
2023-02-14T06:40:21.838Z,88.70
2023-02-14T06:42:48.701Z,88.80
2023-02-14T06:45:15.591Z,88.70
2023-02-14T06:47:42.486Z,88.50
2023-02-14T06:50:11.625Z,88.60
2023-02-14T06:52:38.987Z,88.60
2023-02-14T06:55:06.198Z,88.70
2023-02-14T06:57:33.077Z,88.80
2023-02-14T06:59:59.944Z,88.70
2023-02-14T07:02:26.825Z,88.70
2023-02-14T07:04:53.656Z,88.60
2023-02-14T07:07:20.514Z,88.70
2023-02-14T07:09:47.428Z,88.50
2023-02-14T07:12:14.333Z,88.50
2023-02-14T07:14:41.189Z,88.50
2023-02-14T07:17:08.070Z,88.60
2023-02-14T07:19:35.157Z,88.60
2023-02-14T07:22:02.044Z,88.60
2023-02-14T07:24:28.948Z,88.50
2023-02-14T07:26:55.867Z,88.40
2023-02-14T07:29:22.756Z,88.30
2023-02-14T07:31:49.890Z,88.40
2023-02-14T07:34:16.835Z,88.50
2023-02-14T07:36:44.186Z,88.30
2023-02-14T07:39:11.581Z,88.40
2023-02-14T07:41:38.714Z,88.20
2023-02-14T07:44:09.955Z,88.00
2023-02-14T07:46:36.986Z,88.00
2023-02-14T07:49:03.979Z,87.90
2023-02-14T07:51:31.002Z,87.90
2023-02-14T07:53:58.224Z,88.20
2023-02-14T07:56:25.119Z,88.30
2023-02-14T07:58:52.012Z,88.40
2023-02-14T08:01:19.115Z,88.40
2023-02-14T08:03:49.350Z,88.20
2023-02-14T08:06:20.690Z,88.00
2023-02-14T08:08:48.441Z,88.00
2023-02-14T08:11:35.370Z,88.00
2023-02-14T08:14:02.482Z,87.80
2023-02-14T08:16:29.393Z,88.00
2023-02-14T08:18:56.356Z,87.80
2023-02-14T08:21:23.236Z,87.80
2023-02-14T08:23:50.191Z,87.80
2023-02-14T08:26:17.286Z,87.80
2023-02-14T08:28:44.675Z,87.80
2023-02-14T08:31:11.979Z,87.80
2023-02-14T08:33:38.912Z,87.60
2023-02-14T08:36:06.090Z,87.70
2023-02-14T08:38:32.985Z,87.80
2023-02-14T08:41:03.334Z,87.70
2023-02-14T08:43:34.204Z,87.30
2023-02-14T08:46:01.902Z,87.20
2023-02-14T08:48:29.344Z,87.20
2023-02-14T08:50:56.286Z,87.30
2023-02-14T08:53:23.522Z,87.30
2023-02-14T08:55:50.397Z,87.20
2023-02-14T08:58:17.358Z,87.10
2023-02-14T09:00:44.245Z,87.20
2023-02-14T09:03:11.209Z,87.20
2023-02-14T09:05:38.125Z,86.80
2023-02-14T09:08:05.200Z,86.70
2023-02-14T09:10:32.119Z,87.00
2023-02-14T09:12:58.993Z,87.00
2023-02-14T09:15:25.864Z,86.80
2023-02-14T09:17:52.770Z,86.60
2023-02-14T09:20:19.748Z,86.90
2023-02-14T09:22:48.647Z,86.80
2023-02-14T09:25:16.378Z,86.50
2023-02-14T09:27:43.511Z,86.80
2023-02-14T09:30:11.260Z,86.70
2023-02-14T09:32:38.198Z,86.70
2023-02-14T09:35:05.349Z,86.30
2023-02-14T09:37:50.923Z,86.30
2023-02-14T09:40:20.183Z,86.50
2023-02-14T09:43:05.088Z,86.60
2023-02-14T09:45:34.058Z,86.40
2023-02-14T09:48:15.092Z,86.20
2023-02-14T09:50:59.090Z,85.90
2023-02-14T09:53:42.833Z,85.60
2023-02-14T09:56:27.499Z,85.70
2023-02-14T09:59:16.585Z,85.50
2023-02-14T10:01:54.791Z,85.60
2023-02-14T10:04:49.913Z,85.60
2023-02-14T10:08:00.820Z,85.40
2023-02-14T10:11:04.578Z,85.70
2023-02-14T10:13:49.554Z,85.40
2023-02-14T10:16:33.889Z,85.50
2023-02-14T10:19:07.946Z,85.50
2023-02-14T10:21:42.595Z,85.50
2023-02-14T10:24:35.472Z,85.50
2023-02-14T10:27:32.153Z,85.60
2023-02-14T10:29:59.125Z,85.50
2023-02-14T10:32:40.654Z,85.20
2023-02-14T10:35:35.825Z,85.50
2023-02-14T10:39:04.939Z,85.60
2023-02-14T10:41:54.083Z,84.90
2023-02-14T10:44:46.289Z,85.50
2023-02-14T10:47:36.853Z,85.10
2023-02-14T10:50:19.466Z,85.00
2023-02-14T10:53:08.596Z,85.30
2023-02-14T10:55:46.647Z,85.20
2023-02-14T10:58:18.263Z,84.50
2023-02-14T11:00:58.126Z,84.10
2023-02-14T11:03:26.022Z,83.90
2023-02-14T11:05:52.899Z,84.20
2023-02-14T11:08:29.067Z,84.30
2023-02-14T11:11:21.419Z,84.80
2023-02-14T11:13:48.850Z,84.90
2023-02-14T11:16:36.302Z,85.20
2023-02-14T11:19:25.368Z,85.10
2023-02-14T11:21:55.788Z,84.80
2023-02-14T11:24:32.984Z,84.90
2023-02-14T11:27:10.600Z,84.60
2023-02-14T11:29:47.985Z,85.20
2023-02-14T11:32:22.879Z,84.10
2023-02-14T11:34:59.698Z,84.20
2023-02-14T11:37:39.805Z,83.50
2023-02-14T11:40:07.834Z,83.80
2023-02-14T11:42:44.468Z,83.70
2023-02-14T11:45:35.390Z,83.70
2023-02-14T11:48:22.386Z,83.50
2023-02-14T11:51:13.983Z,83.80
2023-02-14T11:53:54.816Z,84.10
2023-02-14T11:56:23.738Z,83.80
2023-02-14T11:58:58.364Z,83.60
2023-02-14T12:01:31.442Z,84.40
2023-02-14T12:04:04.546Z,83.70
2023-02-14T12:06:34.641Z,83.10
2023-02-14T12:09:13.668Z,83.00
2023-02-14T12:11:40.580Z,83.50
2023-02-14T12:14:21.674Z,84.70
2023-02-14T12:17:00.761Z,84.00
2023-02-14T12:19:44.453Z,83.50
2023-02-14T12:22:18.898Z,83.50
2023-02-14T12:25:12.270Z,84.80
2023-02-14T12:28:04.141Z,83.00
2023-02-14T12:30:34.561Z,83.60
2023-02-14T12:33:01.788Z,83.90
2023-02-14T12:35:57.273Z,84.00
2023-02-14T12:39:11.653Z,83.50
2023-02-14T12:42:00.014Z,83.30
2023-02-14T12:44:56.569Z,83.70
2023-02-14T12:47:47.429Z,83.40
2023-02-14T12:50:29.481Z,83.70
2023-02-14T12:53:49.107Z,83.70
2023-02-14T12:56:28.281Z,83.90
2023-02-14T12:59:40.708Z,84.10
2023-02-14T13:02:47.627Z,83.20
2023-02-14T13:05:54.690Z,83.50
2023-02-14T13:08:28.362Z,83.40
2023-02-14T13:11:05.181Z,84.00
2023-02-14T13:14:05.725Z,84.20
2023-02-14T13:16:54.552Z,83.00
2023-02-14T13:19:53.795Z,83.10
2023-02-14T13:22:24.471Z,83.30
2023-02-14T13:24:57.883Z,83.50
2023-02-14T13:27:31.538Z,83.90
2023-02-14T13:30:04.182Z,83.90
2023-02-14T13:32:39.295Z,84.00
2023-02-14T13:35:07.809Z,83.50
2023-02-14T13:37:36.727Z,83.00
2023-02-14T13:40:17.367Z,83.20
2023-02-14T13:42:47.665Z,83.20
2023-02-14T13:45:35.152Z,83.70
2023-02-14T13:48:18.998Z,84.10
2023-02-14T13:51:02.255Z,84.10
2023-02-14T13:53:52.477Z,83.60
2023-02-14T13:56:19.184Z,83.90
2023-02-14T13:58:53.963Z,83.60
2023-02-14T14:01:50.138Z,83.80
2023-02-14T14:04:30.137Z,82.80
2023-02-14T14:07:02.841Z,83.20
2023-02-14T14:09:44.849Z,83.40
2023-02-14T14:12:26.993Z,83.20
2023-02-14T14:15:13.215Z,83.40
2023-02-14T14:17:50.530Z,83.50
2023-02-14T14:20:18.664Z,83.00
2023-02-14T14:22:54.594Z,82.80
2023-02-14T14:25:42.511Z,83.10
2023-02-14T14:28:20.329Z,83.00
2023-02-14T14:30:48.003Z,83.00
2023-02-14T14:33:16.957Z,82.30
2023-02-14T14:35:59.528Z,82.30
2023-02-14T14:38:27.384Z,82.80
2023-02-14T14:40:55.264Z,83.30
2023-02-14T14:43:36.466Z,83.50
2023-02-14T14:46:04.858Z,83.30
2023-02-14T14:48:49.183Z,83.10
2023-02-14T14:51:28.442Z,83.10
2023-02-14T14:54:13.230Z,83.20
2023-02-14T14:56:56.050Z,83.20
2023-02-14T14:59:25.579Z,83.80
2023-02-14T15:01:54.333Z,84.10
2023-02-14T15:04:33.703Z,84.60
2023-02-14T15:07:34.323Z,84.60
2023-02-14T15:10:02.004Z,84.80
2023-02-14T15:12:47.783Z,84.70
2023-02-14T15:15:17.893Z,84.80
2023-02-14T15:17:46.435Z,84.80
2023-02-14T15:20:23.568Z,84.80
2023-02-14T15:22:52.969Z,84.80
2023-02-14T15:25:49.134Z,84.80
2023-02-14T15:28:38.510Z,84.50
2023-02-14T15:31:07.214Z,84.10
2023-02-14T15:33:34.903Z,83.90
2023-02-14T15:36:07.946Z,83.40
2023-02-14T15:38:39.591Z,83.60
2023-02-14T15:41:07.650Z,83.70
2023-02-14T15:43:37.803Z,83.90
2023-02-14T15:46:27.166Z,83.70
2023-02-14T15:48:55.781Z,84.00
2023-02-14T15:51:28.153Z,83.90
2023-02-14T15:54:02.199Z,85.10
2023-02-14T15:56:43.049Z,84.00
2023-02-14T15:59:19.589Z,84.00
2023-02-14T16:02:37.688Z,84.00
2023-02-14T16:05:18.902Z,84.10
2023-02-14T16:08:26.542Z,84.20
2023-02-14T16:11:14.540Z,84.30
2023-02-14T16:13:44.865Z,84.30
2023-02-14T16:16:14.540Z,84.20
2023-02-14T16:18:56.654Z,84.40
2023-02-14T16:21:33.040Z,84.30
2023-02-14T16:24:06.527Z,84.50
2023-02-14T16:26:35.476Z,84.80
2023-02-14T16:29:06.222Z,84.90
2023-02-14T16:31:33.830Z,85.10
2023-02-14T16:34:00.934Z,85.30
2023-02-14T16:36:33.641Z,85.40
2023-02-14T16:39:05.002Z,85.40
2023-02-14T16:41:34.137Z,85.50
2023-02-14T16:44:01.098Z,85.70
2023-02-14T16:46:33.351Z,85.70
2023-02-14T16:49:00.344Z,85.80
2023-02-14T16:51:33.585Z,85.70
2023-02-14T16:54:06.470Z,85.90
2023-02-14T16:56:42.544Z,85.80
2023-02-14T16:59:09.451Z,86.00
2023-02-14T17:01:36.725Z,85.90
2023-02-14T17:04:03.666Z,86.10
2023-02-14T17:06:32.411Z,85.90
2023-02-14T17:09:05.703Z,86.10
2023-02-14T17:11:36.011Z,86.10
2023-02-14T17:14:02.909Z,86.00
2023-02-14T17:16:31.695Z,85.80
2023-02-14T17:18:59.078Z,86.00
2023-02-14T17:21:26.000Z,86.00
2023-02-14T17:23:53.387Z,86.10
2023-02-14T17:26:20.306Z,86.30
2023-02-14T17:28:47.298Z,86.40
2023-02-14T17:31:14.650Z,86.60
2023-02-14T17:33:41.626Z,86.60
2023-02-14T17:36:12.189Z,86.60
2023-02-14T17:38:40.284Z,86.90
2023-02-14T17:41:22.201Z,87.00
2023-02-14T17:43:50.519Z,87.00
2023-02-14T17:46:20.710Z,86.80
2023-02-14T17:48:49.017Z,87.10
2023-02-14T17:51:18.032Z,91.10
2023-02-14T17:53:44.929Z,92.70
2023-02-14T17:56:24.206Z,92.50
2023-02-14T17:58:52.865Z,91.70
2023-02-14T18:01:31.526Z,90.90
2023-02-14T18:03:58.611Z,90.20
2023-02-14T18:06:26.640Z,89.50
2023-02-14T18:08:56.888Z,89.30
2023-02-14T18:11:27.196Z,88.40
2023-02-14T18:13:59.328Z,87.40
2023-02-14T18:16:26.736Z,87.20
2023-02-14T18:18:54.872Z,87.10
2023-02-14T18:21:23.171Z,87.10
2023-02-14T18:23:50.143Z,87.10
2023-02-14T18:26:18.520Z,87.10
2023-02-14T18:28:45.772Z,87.40
2023-02-14T18:31:16.504Z,87.90
2023-02-14T18:33:44.281Z,87.90
2023-02-14T18:36:15.461Z,88.00
2023-02-14T18:38:44.897Z,88.80
2023-02-14T18:41:15.512Z,88.50
2023-02-14T18:43:44.489Z,88.60
2023-02-14T18:46:21.345Z,89.20
2023-02-14T18:48:48.831Z,89.00
2023-02-14T18:51:24.999Z,89.20
2023-02-14T18:53:54.392Z,89.70
2023-02-14T18:56:25.397Z,90.20
2023-02-14T18:59:00.229Z,89.30
2023-02-14T19:01:31.357Z,89.90
2023-02-14T19:04:00.442Z,90.10
2023-02-14T19:06:30.638Z,90.50
2023-02-14T19:08:58.354Z,90.80
2023-02-14T19:11:28.664Z,90.60
2023-02-14T19:13:59.350Z,90.60
2023-02-14T19:16:30.183Z,90.10
2023-02-14T19:18:58.950Z,89.80
2023-02-14T19:21:30.732Z,89.50
2023-02-14T19:23:58.384Z,89.30
2023-02-14T19:26:29.957Z,89.10
2023-02-14T19:29:00.318Z,89.10
2023-02-14T19:31:27.614Z,89.10
2023-02-14T19:33:54.872Z,89.20
2023-02-14T19:36:23.538Z,89.20
2023-02-14T19:38:52.813Z,89.40
2023-02-14T19:41:27.131Z,89.40
2023-02-14T19:43:57.904Z,89.40
2023-02-14T19:46:26.213Z,89.40
2023-02-14T19:48:53.138Z,89.50
2023-02-14T19:51:32.845Z,89.30
2023-02-14T19:54:03.218Z,89.80
2023-02-14T19:56:36.747Z,90.00
2023-02-14T19:59:08.994Z,90.00
2023-02-14T20:01:48.605Z,90.00
2023-02-14T20:04:19.946Z,90.20
2023-02-14T20:06:47.214Z,90.20
2023-02-14T20:09:14.964Z,90.20
2023-02-14T20:11:51.077Z,90.40
2023-02-14T20:14:27.366Z,90.40
2023-02-14T20:16:56.941Z,90.50
2023-02-14T20:19:29.358Z,90.60
2023-02-14T20:21:56.336Z,90.60
2023-02-14T20:24:27.949Z,90.60
2023-02-14T20:26:55.535Z,90.60
2023-02-14T20:29:24.668Z,90.70
2023-02-14T20:31:54.479Z,90.80
2023-02-14T20:34:21.785Z,90.90
2023-02-14T20:36:52.949Z,90.90
2023-02-14T20:39:21.838Z,90.90
2023-02-14T20:41:51.818Z,91.00
2023-02-14T20:44:21.395Z,91.00
2023-02-14T20:46:51.697Z,91.00
2023-02-14T20:49:20.746Z,91.10
2023-02-14T20:51:51.760Z,91.00
2023-02-14T20:54:21.431Z,91.20
2023-02-14T20:56:48.682Z,91.20
2023-02-14T20:59:15.618Z,91.10
2023-02-14T21:01:42.647Z,91.20
2023-02-14T21:04:09.600Z,91.40
2023-02-14T21:06:38.947Z,91.40
2023-02-14T21:09:06.836Z,91.50
2023-02-14T21:11:33.706Z,91.50
2023-02-14T21:14:02.049Z,91.60
2023-02-14T21:16:29.692Z,91.60
2023-02-14T21:19:01.590Z,91.70
2023-02-14T21:21:32.446Z,91.70
2023-02-14T21:24:03.144Z,91.70
2023-02-14T21:26:30.066Z,91.70
2023-02-14T21:28:56.965Z,91.70
2023-02-14T21:31:25.664Z,91.80
2023-02-14T21:33:55.670Z,91.80
2023-02-14T21:36:25.134Z,91.90
2023-02-14T21:38:52.552Z,91.90
2023-02-14T21:41:23.116Z,91.90
2023-02-14T21:43:55.121Z,91.90
2023-02-14T21:46:27.534Z,92.00
2023-02-14T21:49:13.980Z,92.00
2023-02-14T21:51:41.803Z,92.00
2023-02-14T21:54:09.404Z,92.00
2023-02-14T21:56:37.810Z,91.90
2023-02-14T21:59:05.380Z,92.00
2023-02-14T22:01:35.972Z,92.00
2023-02-14T22:04:05.165Z,92.10
2023-02-14T22:06:34.952Z,92.10
2023-02-14T22:09:01.810Z,92.10
2023-02-14T22:11:29.719Z,92.10
2023-02-14T22:13:56.720Z,92.20
2023-02-14T22:16:24.640Z,92.10
2023-02-14T22:18:52.493Z,92.30
2023-02-14T22:21:24.015Z,92.20
2023-02-14T22:23:51.261Z,92.30
2023-02-14T22:26:27.523Z,92.20
2023-02-14T22:28:59.075Z,92.50
2023-02-14T22:31:29.417Z,92.50
2023-02-14T22:33:56.826Z,92.60
2023-02-14T22:36:23.703Z,92.60
2023-02-14T22:38:50.762Z,92.60
2023-02-14T22:41:22.363Z,92.60
2023-02-14T22:43:49.595Z,92.70
2023-02-14T22:46:23.193Z,92.70
2023-02-14T22:48:51.304Z,92.70
2023-02-14T22:51:26.475Z,92.80
2023-02-14T22:53:59.748Z,92.80
2023-02-14T22:56:30.930Z,92.80
2023-02-14T22:59:04.812Z,92.70
2023-02-14T23:01:33.568Z,92.80
2023-02-14T23:04:02.473Z,92.80
2023-02-14T23:06:31.371Z,92.80
2023-02-14T23:08:58.746Z,92.90
2023-02-14T23:11:29.713Z,92.90
2023-02-14T23:14:15.805Z,93.00
2023-02-14T23:17:03.525Z,93.10
2023-02-14T23:19:52.251Z,93.10
2023-02-14T23:22:31.266Z,93.20
2023-02-14T23:25:01.832Z,93.30
2023-02-14T23:27:37.873Z,93.40
2023-02-14T23:30:07.128Z,93.40
2023-02-14T23:32:34.189Z,93.40
2023-02-14T23:35:01.051Z,93.30
2023-02-14T23:37:27.939Z,93.40
2023-02-14T23:39:54.796Z,93.40
2023-02-14T23:42:21.651Z,93.40
2023-02-14T23:44:49.076Z,93.50
2023-02-14T23:47:16.240Z,93.50
2023-02-14T23:49:43.726Z,93.50
2023-02-14T23:52:13.052Z,93.40
2023-02-14T23:54:40.025Z,93.50
2023-02-14T23:57:07.959Z,93.50
2023-02-14T23:59:34.806Z,93.50
